UAL731 EHAM-KEWR
Flight info
| Callsign | UAL731 |
|---|---|
| Flight time | N/A |
| Altitude | 34000 |
| Route | BERGI L60 PENIL M144 BAGSO DCT DOGAL/M083F360 NATA TUDEP/N0466F360 N526A TOPPS DCT HANAA FLOSI4 |
| Aircraft | B77W/H-SDE1E2E3FGHIJ2J3J4J5M1RWXY/LB1D1 |
Departure
| Time | 2026-04-27 13:56 |
|---|---|
| Airport | Amsterdam Airport Schiphol (EHAM) |
Arrival
| Time | N/A |
|---|---|
| Airport | Newark Liberty International Airport (KEWR) |
| Time | Latitude | Longitude | Altitude | Speed | Heading |
|---|---|---|---|---|---|
| 2026-04-27 13:23 | 52.31305 | 4.76341 | 2 ft | 0 kts | 253° |
| 2026-04-27 13:39 | 52.31307 | 4.76350 | 2 ft | 2 kts | 259° |
| 2026-04-27 13:39 | 52.31308 | 4.76377 | 4 ft | 2 kts | 282° |
| 2026-04-27 13:40 | 52.31302 | 4.76403 | 4 ft | 2 kts | 304° |
| 2026-04-27 13:40 | 52.31292 | 4.76423 | 5 ft | 2 kts | 325° |
| 2026-04-27 13:40 | 52.31277 | 4.76436 | 4 ft | 2 kts | 340° |
| 2026-04-27 13:40 | 52.31263 | 4.76442 | 4 ft | 1 kts | 356° |
| 2026-04-27 13:41 | 52.31259 | 4.76443 | 4 ft | 0 kts | 4° |
| 2026-04-27 13:45 | 52.31316 | 4.76444 | 3 ft | 11 kts | 354° |
| 2026-04-27 13:45 | 52.31392 | 4.76407 | 2 ft | 11 kts | 340° |
| 2026-04-27 13:45 | 52.31467 | 4.76362 | 2 ft | 11 kts | 340° |
| 2026-04-27 13:45 | 52.31530 | 4.76288 | 2 ft | 11 kts | 301° |
| 2026-04-27 13:46 | 52.31538 | 4.76162 | 2 ft | 12 kts | 265° |
| 2026-04-27 13:46 | 52.31532 | 4.76031 | 3 ft | 12 kts | 265° |
| 2026-04-27 13:46 | 52.31526 | 4.75898 | 2 ft | 13 kts | 268° |
| 2026-04-27 13:46 | 52.31523 | 4.75714 | 2 ft | 20 kts | 268° |
| 2026-04-27 13:47 | 52.31513 | 4.75452 | 2 ft | 26 kts | 266° |
| 2026-04-27 13:47 | 52.31500 | 4.75133 | 2 ft | 25 kts | 266° |
| 2026-04-27 13:47 | 52.31491 | 4.74853 | 2 ft | 25 kts | 267° |
| 2026-04-27 13:47 | 52.31483 | 4.74593 | 2 ft | 19 kts | 267° |
| 2026-04-27 13:48 | 52.31477 | 4.74406 | 2 ft | 13 kts | 267° |
| 2026-04-27 13:48 | 52.31506 | 4.74282 | 2 ft | 12 kts | 329° |
| 2026-04-27 13:48 | 52.31581 | 4.74285 | 4 ft | 11 kts | 7° |
| 2026-04-27 13:48 | 52.31657 | 4.74299 | 5 ft | 11 kts | 5° |
| 2026-04-27 13:49 | 52.31740 | 4.74311 | 3 ft | 14 kts | 4° |
| 2026-04-27 13:49 | 52.31858 | 4.74320 | -1 ft | 19 kts | 2° |
| 2026-04-27 13:49 | 52.31975 | 4.74323 | -1 ft | 15 kts | 351° |
| 2026-04-27 13:49 | 52.32033 | 4.74199 | -1 ft | 15 kts | 275° |
| 2026-04-27 13:50 | 52.32035 | 4.74030 | 0 ft | 15 kts | 272° |
| 2026-04-27 13:50 | 52.32040 | 4.73860 | 4 ft | 15 kts | 274° |
| 2026-04-27 13:50 | 52.32047 | 4.73691 | 6 ft | 15 kts | 274° |
| 2026-04-27 13:50 | 52.32054 | 4.73522 | 6 ft | 15 kts | 274° |
| 2026-04-27 13:51 | 52.32085 | 4.73364 | 6 ft | 15 kts | 307° |
| 2026-04-27 13:51 | 52.32162 | 4.73246 | 4 ft | 15 kts | 319° |
| 2026-04-27 13:51 | 52.32243 | 4.73133 | 3 ft | 15 kts | 319° |
| 2026-04-27 13:51 | 52.32329 | 4.73012 | 1 ft | 17 kts | 319° |
| 2026-04-27 13:52 | 52.32418 | 4.72887 | 2 ft | 17 kts | 319° |
| 2026-04-27 13:52 | 52.32515 | 4.72750 | 1 ft | 19 kts | 319° |
| 2026-04-27 13:52 | 52.32622 | 4.72604 | 3 ft | 20 kts | 319° |
| 2026-04-27 13:52 | 52.32690 | 4.72497 | 5 ft | 20 kts | 313° |
| 2026-04-27 13:53 | 52.32893 | 4.72118 | 1 ft | 23 kts | 311° |
| 2026-04-27 13:53 | 52.32995 | 4.71927 | 2 ft | 22 kts | 311° |
| 2026-04-27 13:53 | 52.33089 | 4.71754 | 3 ft | 19 kts | 312° |
| 2026-04-27 13:54 | 52.33146 | 4.71616 | 4 ft | 14 kts | 284° |
| 2026-04-27 13:54 | 52.33118 | 4.71467 | 4 ft | 14 kts | 231° |
| 2026-04-27 13:54 | 52.33042 | 4.71362 | 3 ft | 15 kts | 219° |
| 2026-04-27 13:54 | 52.32965 | 4.71248 | 2 ft | 15 kts | 222° |
| 2026-04-27 13:55 | 52.32889 | 4.71131 | 1 ft | 15 kts | 231° |
| 2026-04-27 13:55 | 52.32866 | 4.70967 | 1 ft | 15 kts | 277° |
| 2026-04-27 13:55 | 52.32930 | 4.70889 | 0 ft | 11 kts | 4° |
| 2026-04-27 13:55 | 52.33043 | 4.70900 | -2 ft | 28 kts | 3° |
| 2026-04-27 13:56 | 52.33437 | 4.70939 | 1 ft | 90 kts | 4° |
| 2026-04-27 13:56 | 52.34273 | 4.71015 | -1 ft | 149 kts | 3° |
| 2026-04-27 13:56 | 52.35463 | 4.71147 | 19 ft | 190 kts | 5° |
| 2026-04-27 13:56 | 52.36685 | 4.71265 | 886 ft | 166 kts | 3° |
| 2026-04-27 13:57 | 52.37839 | 4.71341 | 1563 ft | 170 kts | 4° |
| 2026-04-27 13:57 | 52.39089 | 4.71433 | 1854 ft | 189 kts | 4° |
| 2026-04-27 13:57 | 52.40473 | 4.71528 | 2082 ft | 210 kts | 3° |
| 2026-04-27 13:57 | 52.41977 | 4.71541 | 2486 ft | 220 kts | 351° |
| 2026-04-27 13:58 | 52.43490 | 4.70777 | 2804 ft | 239 kts | 336° |
| 2026-04-27 13:58 | 52.44891 | 4.69253 | 3282 ft | 248 kts | 317° |
| 2026-04-27 13:58 | 52.46103 | 4.67173 | 3907 ft | 256 kts | 315° |
| 2026-04-27 13:58 | 52.47340 | 4.65053 | 4681 ft | 258 kts | 315° |
| 2026-04-27 13:59 | 52.48600 | 4.62940 | 5427 ft | 260 kts | 315° |
| 2026-04-27 13:59 | 52.49876 | 4.60823 | 6163 ft | 262 kts | 316° |
| 2026-04-27 13:59 | 52.51171 | 4.58692 | 6866 ft | 265 kts | 316° |
| 2026-04-27 13:59 | 52.52576 | 4.56720 | 7429 ft | 268 kts | 327° |
| 2026-04-27 14:00 | 52.54188 | 4.55149 | 8105 ft | 270 kts | 331° |
| 2026-04-27 14:00 | 52.55840 | 4.53673 | 8780 ft | 273 kts | 331° |
| 2026-04-27 14:00 | 52.57523 | 4.52167 | 9431 ft | 276 kts | 330° |
| 2026-04-27 14:00 | 52.59216 | 4.50628 | 10072 ft | 281 kts | 329° |
| 2026-04-27 14:01 | 52.60937 | 4.49042 | 10597 ft | 287 kts | 329° |
| 2026-04-27 14:01 | 52.62738 | 4.47367 | 10798 ft | 308 kts | 329° |
| 2026-04-27 14:01 | 52.64667 | 4.45561 | 10984 ft | 330 kts | 329° |
| 2026-04-27 14:01 | 52.66727 | 4.43625 | 11156 ft | 351 kts | 329° |
| 2026-04-27 14:02 | 52.68893 | 4.41583 | 11619 ft | 363 kts | 329° |
| 2026-04-27 14:02 | 52.71101 | 4.39498 | 12363 ft | 369 kts | 329° |
| 2026-04-27 14:02 | 52.73304 | 4.37322 | 13112 ft | 369 kts | 322° |
| 2026-04-27 14:02 | 52.75074 | 4.34230 | 13743 ft | 375 kts | 301° |
| 2026-04-27 14:03 | 52.76149 | 4.30313 | 14508 ft | 376 kts | 288° |
| 2026-04-27 14:03 | 52.76977 | 4.26193 | 15191 ft | 381 kts | 288° |
| 2026-04-27 14:03 | 52.77794 | 4.22021 | 16017 ft | 383 kts | 287° |
| 2026-04-27 14:03 | 52.78614 | 4.17817 | 16845 ft | 386 kts | 287° |
| 2026-04-27 14:04 | 52.79442 | 4.13589 | 17633 ft | 389 kts | 287° |
| 2026-04-27 14:04 | 52.80284 | 4.09318 | 18412 ft | 393 kts | 287° |
| 2026-04-27 14:04 | 52.81138 | 4.05008 | 19091 ft | 396 kts | 287° |
| 2026-04-27 14:04 | 52.82000 | 4.00671 | 19834 ft | 397 kts | 287° |
| 2026-04-27 14:05 | 52.82852 | 3.96392 | 20581 ft | 398 kts | 287° |
| 2026-04-27 14:05 | 52.83720 | 3.92029 | 21246 ft | 401 kts | 287° |
| 2026-04-27 14:05 | 52.84594 | 3.87629 | 21872 ft | 405 kts | 287° |
| 2026-04-27 14:05 | 52.85475 | 3.83184 | 22512 ft | 408 kts | 287° |
| 2026-04-27 14:06 | 52.86360 | 3.78710 | 23166 ft | 410 kts | 287° |
| 2026-04-27 14:06 | 52.87248 | 3.74208 | 23806 ft | 413 kts | 287° |
| 2026-04-27 14:06 | 52.88142 | 3.69666 | 24283 ft | 417 kts | 286° |
| 2026-04-27 14:06 | 52.89045 | 3.65065 | 24303 ft | 422 kts | 286° |
| 2026-04-27 14:07 | 52.89948 | 3.60460 | 24317 ft | 418 kts | 286° |
| 2026-04-27 14:07 | 52.90841 | 3.55894 | 24313 ft | 416 kts | 286° |
| 2026-04-27 14:07 | 52.91729 | 3.51339 | 24321 ft | 415 kts | 286° |
| 2026-04-27 14:07 | 52.92615 | 3.46785 | 24322 ft | 415 kts | 286° |
| 2026-04-27 14:08 | 52.93499 | 3.42227 | 24317 ft | 415 kts | 286° |
| 2026-04-27 14:08 | 52.94381 | 3.37671 | 24318 ft | 415 kts | 286° |
| 2026-04-27 14:08 | 52.95261 | 3.33111 | 24315 ft | 415 kts | 286° |
| 2026-04-27 14:08 | 52.96141 | 3.28549 | 24314 ft | 415 kts | 286° |
| 2026-04-27 14:09 | 52.97019 | 3.23984 | 24314 ft | 416 kts | 285° |
| 2026-04-27 14:09 | 52.97896 | 3.19412 | 24309 ft | 416 kts | 285° |
| 2026-04-27 14:09 | 52.98756 | 3.14898 | 24309 ft | 416 kts | 285° |
| 2026-04-27 14:09 | 52.99637 | 3.10264 | 24306 ft | 415 kts | 285° |
| 2026-04-27 14:10 | 53.00492 | 3.05755 | 24308 ft | 415 kts | 285° |
| 2026-04-27 14:10 | 53.01356 | 3.01187 | 24313 ft | 414 kts | 285° |
| 2026-04-27 14:10 | 53.02197 | 2.96734 | 24300 ft | 411 kts | 285° |
| 2026-04-27 14:10 | 53.03049 | 2.92206 | 24302 ft | 411 kts | 285° |
| 2026-04-27 14:11 | 53.03900 | 2.87678 | 24306 ft | 410 kts | 285° |
| 2026-04-27 14:11 | 53.04748 | 2.83155 | 24302 ft | 410 kts | 285° |
| 2026-04-27 14:11 | 53.05595 | 2.78624 | 24301 ft | 410 kts | 285° |
| 2026-04-27 14:11 | 53.06440 | 2.74093 | 24302 ft | 410 kts | 285° |
| 2026-04-27 14:12 | 53.07284 | 2.69560 | 24303 ft | 411 kts | 285° |
| 2026-04-27 14:12 | 53.08126 | 2.65022 | 24303 ft | 411 kts | 285° |
| 2026-04-27 14:12 | 53.08969 | 2.60476 | 24302 ft | 411 kts | 285° |
| 2026-04-27 14:12 | 53.09810 | 2.55925 | 24298 ft | 412 kts | 285° |
| 2026-04-27 14:13 | 53.10626 | 2.51352 | 24450 ft | 414 kts | 282° |
| 2026-04-27 14:13 | 53.11226 | 2.46661 | 24937 ft | 415 kts | 277° |
| 2026-04-27 14:13 | 53.11611 | 2.41895 | 25469 ft | 416 kts | 276° |
| 2026-04-27 14:13 | 53.11989 | 2.37103 | 25949 ft | 419 kts | 276° |
| 2026-04-27 14:14 | 53.12372 | 2.32277 | 26396 ft | 423 kts | 276° |
| 2026-04-27 14:14 | 53.12760 | 2.27409 | 26829 ft | 426 kts | 276° |
| 2026-04-27 14:14 | 53.13153 | 2.22502 | 27260 ft | 429 kts | 276° |
| 2026-04-27 14:14 | 53.13548 | 2.17568 | 27698 ft | 432 kts | 276° |
| 2026-04-27 14:15 | 53.13946 | 2.12597 | 28103 ft | 435 kts | 276° |
| 2026-04-27 14:15 | 53.14345 | 2.07588 | 28519 ft | 437 kts | 276° |
| 2026-04-27 14:15 | 53.14745 | 2.02553 | 28894 ft | 440 kts | 277° |
| 2026-04-27 14:15 | 53.15137 | 1.97579 | 29268 ft | 442 kts | 277° |
| 2026-04-27 14:16 | 53.15537 | 1.92492 | 29643 ft | 444 kts | 277° |
| 2026-04-27 14:16 | 53.15936 | 1.87384 | 30056 ft | 445 kts | 277° |
| 2026-04-27 14:16 | 53.16332 | 1.82278 | 30535 ft | 443 kts | 277° |
| 2026-04-27 14:16 | 53.16724 | 1.77192 | 30960 ft | 442 kts | 277° |
| 2026-04-27 14:17 | 53.17114 | 1.72115 | 31356 ft | 441 kts | 277° |
| 2026-04-27 14:17 | 53.17500 | 1.67044 | 31717 ft | 441 kts | 277° |
| 2026-04-27 14:17 | 53.17884 | 1.61976 | 32078 ft | 441 kts | 277° |
| 2026-04-27 14:17 | 53.18266 | 1.56913 | 32447 ft | 440 kts | 277° |
| 2026-04-27 14:18 | 53.18645 | 1.51855 | 32793 ft | 440 kts | 278° |
| 2026-04-27 14:18 | 53.19022 | 1.46781 | 33067 ft | 441 kts | 278° |
| 2026-04-27 14:18 | 53.19399 | 1.41703 | 33372 ft | 441 kts | 278° |
| 2026-04-27 14:18 | 53.19772 | 1.36630 | 33721 ft | 441 kts | 278° |
| 2026-04-27 14:19 | 53.20143 | 1.31557 | 34066 ft | 440 kts | 278° |
| 2026-04-27 14:19 | 53.20513 | 1.26482 | 34230 ft | 443 kts | 278° |
| 2026-04-27 14:19 | 53.20883 | 1.21359 | 34274 ft | 445 kts | 278° |
| 2026-04-27 14:20 | 53.21615 | 1.11143 | 34281 ft | 440 kts | 278° |
| 2026-04-27 14:20 | 53.22329 | 1.01033 | 34278 ft | 438 kts | 278° |
| 2026-04-27 14:21 | 53.23029 | 0.91019 | 34286 ft | 438 kts | 279° |
| 2026-04-27 14:21 | 53.23727 | 0.80914 | 34294 ft | 439 kts | 278° |
| 2026-04-27 14:22 | 53.24418 | 0.70777 | 34293 ft | 440 kts | 278° |
| 2026-04-27 14:22 | 53.25102 | 0.60610 | 34319 ft | 441 kts | 278° |
| 2026-04-27 14:23 | 53.25781 | 0.50393 | 34281 ft | 444 kts | 279° |
| 2026-04-27 14:23 | 53.26452 | 0.40150 | 34290 ft | 444 kts | 279° |
| 2026-04-27 14:24 | 53.27140 | 0.29503 | 34288 ft | 444 kts | 279° |
| 2026-04-27 14:24 | 53.28440 | 0.09014 | 34286 ft | 443 kts | 279° |
| 2026-04-27 14:25 | 53.30261 | -0.11119 | 34271 ft | 440 kts | 283° |
| 2026-04-27 14:25 | 53.32349 | -0.31269 | 34272 ft | 440 kts | 283° |
| 2026-04-27 14:26 | 53.34383 | -0.51428 | 34269 ft | 439 kts | 283° |
| 2026-04-27 14:26 | 53.36391 | -0.71608 | 34271 ft | 440 kts | 283° |
| 2026-04-27 14:27 | 53.38337 | -0.91829 | 34270 ft | 440 kts | 283° |
| 2026-04-27 14:27 | 53.40301 | -1.11906 | 34257 ft | 440 kts | 284° |
| 2026-04-27 14:28 | 53.42187 | -1.32141 | 34280 ft | 440 kts | 283° |
| 2026-04-27 14:28 | 53.44084 | -1.52425 | 34284 ft | 441 kts | 283° |
| 2026-04-27 14:29 | 53.45929 | -1.72709 | 34285 ft | 439 kts | 284° |
| 2026-04-27 14:29 | 53.47723 | -1.92974 | 34304 ft | 439 kts | 284° |
| 2026-04-27 14:30 | 53.49448 | -2.13059 | 34258 ft | 437 kts | 285° |
| 2026-04-27 14:30 | 53.51157 | -2.33229 | 34319 ft | 435 kts | 285° |
| 2026-04-27 14:31 | 53.52835 | -2.53370 | 34322 ft | 435 kts | 285° |
| 2026-04-27 14:31 | 53.54477 | -2.73501 | 34341 ft | 435 kts | 286° |
| 2026-04-27 14:32 | 53.56091 | -2.93720 | 34353 ft | 437 kts | 286° |
| 2026-04-27 14:32 | 53.57667 | -3.13905 | 34297 ft | 439 kts | 286° |
| 2026-04-27 14:33 | 53.59227 | -3.34354 | 34357 ft | 442 kts | 286° |
| 2026-04-27 14:33 | 53.60762 | -3.54948 | 34354 ft | 445 kts | 286° |
| 2026-04-27 14:34 | 53.62082 | -3.75768 | 34365 ft | 451 kts | 282° |
| 2026-04-27 14:34 | 53.62890 | -3.96772 | 34370 ft | 453 kts | 283° |
| 2026-04-27 14:35 | 53.63711 | -4.17873 | 34327 ft | 456 kts | 282° |
| 2026-04-27 14:35 | 53.64493 | -4.39236 | 34380 ft | 457 kts | 282° |
| 2026-04-27 14:36 | 53.65232 | -4.60667 | 34379 ft | 459 kts | 281° |
| 2026-04-27 14:36 | 53.65942 | -4.82149 | 34376 ft | 459 kts | 281° |
| 2026-04-27 14:37 | 53.66643 | -5.03495 | 34385 ft | 460 kts | 281° |
| 2026-04-27 14:37 | 53.67308 | -5.25079 | 34354 ft | 462 kts | 281° |
| 2026-04-27 14:38 | 53.67813 | -5.43086 | 34384 ft | 463 kts | 280° |
| 2026-04-27 14:38 | 53.69014 | -5.64575 | 34389 ft | 459 kts | 285° |
| 2026-04-27 14:39 | 53.70596 | -5.86005 | 34384 ft | 461 kts | 284° |
| 2026-04-27 14:39 | 53.72089 | -6.07368 | 34383 ft | 462 kts | 284° |
| 2026-04-27 14:40 | 53.73552 | -6.28924 | 34347 ft | 462 kts | 284° |
| 2026-04-27 14:40 | 53.74976 | -6.50477 | 34387 ft | 462 kts | 284° |
| 2026-04-27 14:41 | 53.76362 | -6.72069 | 34379 ft | 462 kts | 283° |
| 2026-04-27 14:41 | 53.77713 | -6.93698 | 34372 ft | 463 kts | 283° |
| 2026-04-27 14:42 | 53.79018 | -7.15244 | 34391 ft | 465 kts | 283° |
| 2026-04-27 14:42 | 53.80299 | -7.37057 | 34361 ft | 467 kts | 282° |
| 2026-04-27 14:43 | 53.81542 | -7.58934 | 34377 ft | 468 kts | 282° |
| 2026-04-27 14:43 | 53.82750 | -7.80886 | 34385 ft | 468 kts | 281° |
| 2026-04-27 14:44 | 53.83909 | -8.02691 | 34378 ft | 468 kts | 281° |
| 2026-04-27 14:44 | 53.85034 | -8.24610 | 34376 ft | 467 kts | 281° |
| 2026-04-27 14:45 | 53.86118 | -8.46522 | 34376 ft | 467 kts | 280° |
| 2026-04-27 14:45 | 53.87161 | -8.68430 | 34406 ft | 467 kts | 280° |
| 2026-04-27 14:46 | 53.88166 | -8.90376 | 34403 ft | 467 kts | 279° |
| 2026-04-27 14:46 | 53.89126 | -9.12206 | 34405 ft | 468 kts | 279° |
| 2026-04-27 14:47 | 53.90048 | -9.34117 | 34410 ft | 470 kts | 279° |
| 2026-04-27 14:47 | 53.90939 | -9.56249 | 34406 ft | 471 kts | 278° |
| 2026-04-27 14:48 | 53.91790 | -9.78431 | 34436 ft | 472 kts | 278° |
| 2026-04-27 14:48 | 53.92989 | -10.11649 | 34430 ft | 472 kts | 277° |
| 2026-04-27 14:49 | 53.93739 | -10.33904 | 34439 ft | 472 kts | 277° |
| 2026-04-27 14:49 | 53.94450 | -10.56182 | 34431 ft | 473 kts | 277° |
| 2026-04-27 14:50 | 53.95120 | -10.78483 | 34442 ft | 473 kts | 276° |
| 2026-04-27 14:50 | 53.95745 | -11.00638 | 34447 ft | 474 kts | 276° |
| 2026-04-27 14:51 | 53.96335 | -11.23045 | 34441 ft | 475 kts | 276° |
| 2026-04-27 14:51 | 53.96883 | -11.45487 | 34446 ft | 475 kts | 275° |
| 2026-04-27 14:52 | 53.97390 | -11.67917 | 34421 ft | 475 kts | 275° |
| 2026-04-27 14:52 | 53.97854 | -11.90343 | 34445 ft | 475 kts | 274° |
| 2026-04-27 14:53 | 53.98274 | -12.12595 | 34443 ft | 475 kts | 274° |
| 2026-04-27 14:53 | 53.98656 | -12.35023 | 34441 ft | 475 kts | 273° |
| 2026-04-27 14:54 | 53.98995 | -12.57469 | 34446 ft | 475 kts | 273° |
| 2026-04-27 14:54 | 53.99293 | -12.79903 | 34439 ft | 475 kts | 272° |
| 2026-04-27 14:55 | 53.99547 | -13.02170 | 34437 ft | 475 kts | 272° |
| 2026-04-27 14:55 | 53.99761 | -13.24601 | 34438 ft | 475 kts | 272° |
| 2026-04-27 14:56 | 53.99934 | -13.46992 | 34441 ft | 474 kts | 271° |
| 2026-04-27 14:56 | 54.00064 | -13.69345 | 34422 ft | 473 kts | 271° |
| 2026-04-27 14:57 | 54.00154 | -13.91669 | 34431 ft | 472 kts | 270° |
| 2026-04-27 14:57 | 54.00201 | -14.13769 | 34431 ft | 471 kts | 270° |
| 2026-04-27 14:58 | 54.00208 | -14.36021 | 34426 ft | 470 kts | 269° |
| 2026-04-27 14:58 | 54.00174 | -14.58232 | 34433 ft | 470 kts | 269° |
| 2026-04-27 14:59 | 54.00099 | -14.80416 | 34429 ft | 469 kts | 269° |
| 2026-04-27 14:59 | 53.99995 | -15.02385 | 34421 ft | 468 kts | 269° |
| 2026-04-27 15:00 | 54.00439 | -15.24498 | 34419 ft | 468 kts | 271° |
| 2026-04-27 15:00 | 54.00879 | -15.46585 | 34423 ft | 467 kts | 270° |
| 2026-04-27 15:01 | 54.01228 | -15.68642 | 34406 ft | 466 kts | 270° |
| 2026-04-27 15:01 | 54.01538 | -15.90672 | 34405 ft | 466 kts | 270° |
| 2026-04-27 15:02 | 54.01806 | -16.12352 | 34403 ft | 465 kts | 270° |
| 2026-04-27 15:02 | 54.02037 | -16.34332 | 34398 ft | 464 kts | 269° |
| 2026-04-27 15:03 | 54.02227 | -16.56285 | 34387 ft | 464 kts | 269° |
| 2026-04-27 15:03 | 54.02378 | -16.78224 | 34379 ft | 464 kts | 269° |
| 2026-04-27 15:04 | 54.02488 | -17.00108 | 34388 ft | 464 kts | 269° |
| 2026-04-27 15:04 | 54.02559 | -17.21879 | 34387 ft | 464 kts | 269° |
| 2026-04-27 15:05 | 54.02590 | -17.43836 | 34379 ft | 464 kts | 268° |
| 2026-04-27 15:05 | 54.02581 | -17.65787 | 34368 ft | 464 kts | 268° |
| 2026-04-27 15:06 | 54.02532 | -17.87745 | 34359 ft | 464 kts | 268° |
| 2026-04-27 15:06 | 54.02445 | -18.09510 | 34347 ft | 464 kts | 268° |
| 2026-04-27 15:07 | 54.02316 | -18.31482 | 34349 ft | 464 kts | 267° |
| 2026-04-27 15:07 | 54.02147 | -18.53451 | 34341 ft | 464 kts | 267° |
| 2026-04-27 15:08 | 54.01939 | -18.75408 | 34338 ft | 464 kts | 267° |
| 2026-04-27 15:08 | 54.01691 | -18.97368 | 34332 ft | 464 kts | 267° |
| 2026-04-27 15:09 | 54.01404 | -19.19155 | 34316 ft | 464 kts | 266° |
| 2026-04-27 15:09 | 54.01077 | -19.41090 | 34310 ft | 464 kts | 266° |
| 2026-04-27 15:10 | 54.00709 | -19.63018 | 34297 ft | 464 kts | 266° |
| 2026-04-27 15:10 | 54.00303 | -19.84909 | 34298 ft | 463 kts | 266° |
| 2026-04-27 15:11 | 54.00197 | -20.06624 | 34296 ft | 464 kts | 271° |
| 2026-04-27 15:11 | 54.01136 | -20.28530 | 34287 ft | 465 kts | 272° |
| 2026-04-27 15:12 | 54.01992 | -20.50459 | 34280 ft | 465 kts | 271° |
| 2026-04-27 15:12 | 54.02790 | -20.72414 | 34266 ft | 465 kts | 271° |
| 2026-04-27 15:13 | 54.03550 | -20.94373 | 34264 ft | 465 kts | 271° |
| 2026-04-27 15:13 | 54.04265 | -21.16146 | 34256 ft | 465 kts | 270° |
| 2026-04-27 15:14 | 54.04945 | -21.38117 | 34250 ft | 465 kts | 270° |
| 2026-04-27 15:14 | 54.05581 | -21.59929 | 34256 ft | 464 kts | 269° |
| 2026-04-27 15:15 | 54.06181 | -21.81888 | 34237 ft | 464 kts | 269° |
| 2026-04-27 15:15 | 54.06736 | -22.03660 | 34233 ft | 463 kts | 269° |
| 2026-04-27 15:16 | 54.07255 | -22.25561 | 34227 ft | 463 kts | 269° |
| 2026-04-27 15:16 | 54.07734 | -22.47456 | 34220 ft | 462 kts | 269° |
| 2026-04-27 15:17 | 54.08172 | -22.69325 | 34209 ft | 462 kts | 268° |
| 2026-04-27 15:17 | 54.08571 | -22.91190 | 34203 ft | 462 kts | 268° |
| 2026-04-27 15:18 | 54.08926 | -23.12825 | 34187 ft | 461 kts | 267° |
| 2026-04-27 15:18 | 54.09244 | -23.34609 | 34200 ft | 460 kts | 266° |
| 2026-04-27 15:19 | 54.09523 | -23.56390 | 34165 ft | 460 kts | 266° |
| 2026-04-27 15:19 | 54.09763 | -23.78182 | 34159 ft | 460 kts | 266° |
| 2026-04-27 15:20 | 54.09963 | -23.99987 | 34155 ft | 461 kts | 265° |
| 2026-04-27 15:20 | 54.10123 | -24.21619 | 34143 ft | 461 kts | 265° |
| 2026-04-27 15:21 | 54.10246 | -24.43464 | 34127 ft | 461 kts | 264° |
| 2026-04-27 15:21 | 54.10328 | -24.65291 | 34121 ft | 460 kts | 264° |
| 2026-04-27 15:22 | 54.10372 | -24.87068 | 34104 ft | 459 kts | 264° |
| 2026-04-27 15:22 | 54.10376 | -25.08573 | 34119 ft | 457 kts | 263° |
| 2026-04-27 15:23 | 54.10340 | -25.30286 | 34088 ft | 458 kts | 263° |
| 2026-04-27 15:23 | 54.10266 | -25.52013 | 34102 ft | 459 kts | 262° |
| 2026-04-27 15:24 | 54.10174 | -25.70105 | 34089 ft | 459 kts | 262° |
| 2026-04-27 15:24 | 54.10001 | -25.95381 | 34057 ft | 458 kts | 261° |
| 2026-04-27 15:25 | 54.09847 | -26.13271 | 34040 ft | 457 kts | 261° |
| 2026-04-27 15:25 | 54.09625 | -26.34901 | 34038 ft | 457 kts | 261° |
| 2026-04-27 15:26 | 54.09363 | -26.56496 | 34024 ft | 455 kts | 260° |
| 2026-04-27 15:26 | 54.09065 | -26.78032 | 34042 ft | 454 kts | 260° |
| 2026-04-27 15:27 | 54.08728 | -26.99533 | 34005 ft | 454 kts | 259° |
| 2026-04-27 15:27 | 54.08359 | -27.20717 | 33992 ft | 453 kts | 259° |
| 2026-04-27 15:28 | 54.07948 | -27.42117 | 34028 ft | 451 kts | 259° |
| 2026-04-27 15:28 | 54.07500 | -27.63479 | 33976 ft | 451 kts | 258° |
| 2026-04-27 15:29 | 54.07015 | -27.84796 | 33980 ft | 450 kts | 258° |
| 2026-04-27 15:29 | 54.06500 | -28.05813 | 33992 ft | 450 kts | 258° |
| 2026-04-27 15:30 | 54.05945 | -28.26935 | 33966 ft | 449 kts | 258° |
| 2026-04-27 15:30 | 54.05350 | -28.48149 | 33961 ft | 448 kts | 257° |
| 2026-04-27 15:31 | 54.04719 | -28.69336 | 33958 ft | 448 kts | 257° |
| 2026-04-27 15:31 | 54.04052 | -28.90483 | 33942 ft | 447 kts | 257° |
| 2026-04-27 15:32 | 54.03358 | -29.11305 | 33936 ft | 445 kts | 257° |
| 2026-04-27 15:32 | 54.02620 | -29.32348 | 33933 ft | 446 kts | 256° |
| 2026-04-27 15:33 | 54.02234 | -29.42904 | 34132 ft | 449 kts | 256° |
| 2026-04-27 15:33 | 54.01840 | -29.53508 | 34731 ft | 449 kts | 256° |
| 2026-04-27 15:33 | 54.01438 | -29.64096 | 35271 ft | 449 kts | 257° |
| 2026-04-27 15:33 | 54.01024 | -29.74697 | 35778 ft | 450 kts | 257° |
| 2026-04-27 15:34 | 54.00597 | -29.85375 | 35914 ft | 456 kts | 257° |
| 2026-04-27 15:34 | 54.00157 | -29.96175 | 35926 ft | 460 kts | 257° |
| 2026-04-27 15:34 | 54.00678 | -30.17952 | 35893 ft | 465 kts | 265° |
| 2026-04-27 15:35 | 54.01585 | -30.39608 | 35923 ft | 456 kts | 264° |
| 2026-04-27 15:35 | 54.02383 | -30.61056 | 35905 ft | 455 kts | 264° |
| 2026-04-27 15:36 | 54.03146 | -30.82762 | 35898 ft | 464 kts | 264° |
| 2026-04-27 15:36 | 54.03884 | -31.04573 | 35906 ft | 470 kts | 264° |
| 2026-04-27 15:37 | 54.04599 | -31.26643 | 35886 ft | 462 kts | 264° |
| 2026-04-27 15:37 | 54.05252 | -31.48232 | 35862 ft | 452 kts | 264° |
| 2026-04-27 15:38 | 54.05849 | -31.69631 | 35895 ft | 456 kts | 263° |
| 2026-04-27 15:38 | 54.06422 | -31.91461 | 35881 ft | 466 kts | 263° |
| 2026-04-27 15:39 | 54.08150 | -32.67496 | 35823 ft | 465 kts | 263° |
| 2026-04-27 15:39 | 54.08883 | -33.10309 | 35779 ft | 454 kts | 263° |
| 2026-04-27 15:39 | 54.09491 | -33.52964 | 35826 ft | 449 kts | 263° |
| 2026-04-27 15:40 | 54.09926 | -33.95847 | 35945 ft | 457 kts | 264° |
| 2026-04-27 15:40 | 54.10222 | -34.38945 | 35974 ft | 467 kts | 264° |
| 2026-04-27 15:40 | 54.10354 | -35.25748 | 35781 ft | 456 kts | 264° |
| 2026-04-27 15:41 | 54.09861 | -36.10916 | 35927 ft | 460 kts | 264° |
| 2026-04-27 15:41 | 54.09380 | -36.55336 | 35993 ft | 477 kts | 265° |
| 2026-04-27 15:41 | 54.08664 | -37.00730 | 35901 ft | 484 kts | 266° |
| 2026-04-27 15:42 | 54.06866 | -37.90477 | 35787 ft | 467 kts | 266° |
| 2026-04-27 15:42 | 54.04397 | -38.78293 | 35982 ft | 475 kts | 269° |
| 2026-04-27 15:43 | 54.01316 | -39.67079 | 35981 ft | 479 kts | 268° |
| 2026-04-27 15:43 | 53.98604 | -40.09899 | 35911 ft | 465 kts | 258° |
| 2026-04-27 15:44 | 53.91958 | -40.52576 | 36008 ft | 475 kts | 258° |
| 2026-04-27 15:44 | 53.85127 | -40.96001 | 35927 ft | 470 kts | 257° |
| 2026-04-27 15:45 | 53.78405 | -41.37679 | 35982 ft | 464 kts | 257° |
| 2026-04-27 15:45 | 53.74911 | -41.58950 | 36027 ft | 475 kts | 257° |
| 2026-04-27 15:45 | 53.71304 | -41.80624 | 36022 ft | 482 kts | 257° |
| 2026-04-27 15:46 | 53.64090 | -42.23143 | 35938 ft | 466 kts | 258° |
| 2026-04-27 15:46 | 53.56831 | -42.64981 | 36033 ft | 472 kts | 257° |
| 2026-04-27 15:47 | 53.49255 | -43.07586 | 36027 ft | 479 kts | 257° |
| 2026-04-27 15:47 | 53.41629 | -43.49489 | 36013 ft | 463 kts | 258° |
| 2026-04-27 15:48 | 53.30630 | -44.08426 | 36168 ft | 485 kts | 257° |
| 2026-04-27 15:49 | 53.06230 | -45.32696 | 35961 ft | 454 kts | 257° |
| 2026-04-27 15:49 | 52.98209 | -45.71978 | 36140 ft | 459 kts | 257° |
| 2026-04-27 15:49 | 52.89882 | -46.11879 | 36230 ft | 471 kts | 256° |
| 2026-04-27 15:49 | 52.81131 | -46.52932 | 36108 ft | 472 kts | 256° |
| 2026-04-27 15:50 | 52.72339 | -46.93406 | 36030 ft | 462 kts | 256° |
| 2026-04-27 15:50 | 52.55058 | -47.70772 | 36168 ft | 454 kts | 255° |
| 2026-04-27 15:51 | 52.36926 | -48.48962 | 36194 ft | 468 kts | 254° |
| 2026-04-27 15:51 | 52.18376 | -49.26147 | 36099 ft | 451 kts | 253° |
| 2026-04-27 15:51 | 52.09064 | -49.63870 | 36212 ft | 449 kts | 253° |
| 2026-04-27 15:52 | 51.99663 | -50.01342 | 36288 ft | 457 kts | 253° |
| 2026-04-27 15:52 | 51.80877 | -50.78424 | 36237 ft | 460 kts | 253° |
| 2026-04-27 15:53 | 51.62166 | -51.52627 | 36244 ft | 443 kts | 252° |
| 2026-04-27 15:53 | 51.43037 | -52.25994 | 36397 ft | 459 kts | 251° |
| 2026-04-27 15:54 | 51.22910 | -53.00723 | 36248 ft | 452 kts | 250° |
| 2026-04-27 15:54 | 51.02075 | -53.71626 | 36395 ft | 443 kts | 247° |
| 2026-04-27 15:55 | 50.80197 | -54.42261 | 36448 ft | 458 kts | 246° |
| 2026-04-27 15:55 | 50.57684 | -55.12821 | 36318 ft | 446 kts | 245° |
| 2026-04-27 15:56 | 50.35146 | -55.81568 | 36496 ft | 447 kts | 244° |
| 2026-04-27 15:56 | 50.11790 | -56.50840 | 36365 ft | 455 kts | 243° |
| 2026-04-27 15:56 | 49.99980 | -56.85194 | 36314 ft | 444 kts | 242° |
| 2026-04-27 15:57 | 49.88720 | -57.17470 | 36301 ft | 438 kts | 242° |
| 2026-04-27 15:57 | 49.76942 | -57.50807 | 36411 ft | 444 kts | 242° |
| 2026-04-27 15:57 | 49.64873 | -57.84567 | 36503 ft | 454 kts | 241° |
| 2026-04-27 15:57 | 49.52721 | -58.18071 | 36382 ft | 454 kts | 240° |
| 2026-04-27 15:58 | 49.40446 | -58.51525 | 36320 ft | 444 kts | 240° |
| 2026-04-27 15:58 | 49.16350 | -59.15909 | 36489 ft | 441 kts | 239° |
| 2026-04-27 15:59 | 48.91156 | -59.81642 | 36448 ft | 453 kts | 237° |
| 2026-04-27 15:59 | 48.65942 | -60.45781 | 36343 ft | 439 kts | 236° |
| 2026-04-27 15:59 | 48.53291 | -60.77402 | 36460 ft | 442 kts | 236° |
| 2026-04-27 16:00 | 48.40547 | -61.08865 | 36507 ft | 452 kts | 235° |
| 2026-04-27 16:00 | 48.13784 | -61.73806 | 36372 ft | 455 kts | 234° |
| 2026-04-27 16:01 | 47.87457 | -62.36165 | 36414 ft | 445 kts | 233° |
| 2026-04-27 16:01 | 47.60189 | -62.99285 | 36490 ft | 463 kts | 233° |
| 2026-04-27 16:01 | 47.46381 | -63.30711 | 36374 ft | 461 kts | 232° |
| 2026-04-27 16:02 | 47.32420 | -63.62128 | 36320 ft | 453 kts | 232° |
| 2026-04-27 16:02 | 47.04735 | -64.23343 | 36476 ft | 460 kts | 232° |
| 2026-04-27 16:02 | 46.90313 | -64.54708 | 36484 ft | 471 kts | 232° |
| 2026-04-27 16:03 | 46.75589 | -64.86354 | 36377 ft | 469 kts | 233° |
| 2026-04-27 16:03 | 46.46790 | -65.47288 | 36291 ft | 454 kts | 233° |
| 2026-04-27 16:03 | 46.32274 | -65.77500 | 36403 ft | 461 kts | 233° |
| 2026-04-27 16:04 | 46.17607 | -66.07698 | 36453 ft | 473 kts | 233° |
| 2026-04-27 16:04 | 46.02347 | -66.38757 | 36342 ft | 474 kts | 233° |
| 2026-04-27 16:04 | 45.87279 | -66.69117 | 36239 ft | 465 kts | 233° |
| 2026-04-27 16:05 | 45.57679 | -67.27780 | 36342 ft | 465 kts | 234° |
| 2026-04-27 16:05 | 45.28334 | -67.89728 | 36330 ft | 475 kts | 247° |
| 2026-04-27 16:06 | 45.06581 | -68.56464 | 36230 ft | 462 kts | 246° |
| 2026-04-27 16:06 | 44.86016 | -69.16890 | 36383 ft | 470 kts | 246° |
| 2026-04-27 16:07 | 44.63003 | -69.82872 | 36259 ft | 476 kts | 245° |
| 2026-04-27 16:07 | 44.42463 | -70.40415 | 36215 ft | 460 kts | 245° |
| 2026-04-27 16:07 | 44.30873 | -70.72370 | 36341 ft | 463 kts | 244° |
| 2026-04-27 16:08 | 44.19234 | -71.04086 | 36414 ft | 474 kts | 244° |
| 2026-04-27 16:08 | 43.94833 | -71.69377 | 36247 ft | 472 kts | 244° |
| 2026-04-27 16:09 | 43.70848 | -72.32126 | 36288 ft | 465 kts | 245° |
| 2026-04-27 16:09 | 43.45807 | -72.96246 | 36344 ft | 483 kts | 245° |
| 2026-04-27 16:09 | 43.33179 | -73.28014 | 36267 ft | 480 kts | 246° |
| 2026-04-27 16:10 | 42.95106 | -73.72106 | 36469 ft | 503 kts | 188° |
| 2026-04-27 16:10 | 42.60435 | -73.86719 | 36209 ft | 498 kts | 202° |
| 2026-04-27 16:11 | 42.47458 | -73.92522 | 34461 ft | 484 kts | 203° |
| 2026-04-27 16:11 | 42.23039 | -74.03374 | 30854 ft | 453 kts | 202° |
| 2026-04-27 16:12 | 42.00148 | -74.13459 | 26631 ft | 417 kts | 202° |
| 2026-04-27 16:12 | 41.89247 | -74.18234 | 24281 ft | 407 kts | 202° |
| 2026-04-27 16:12 | 41.68440 | -74.27302 | 19868 ft | 380 kts | 200° |
| 2026-04-27 16:13 | 41.58562 | -74.31586 | 18057 ft | 364 kts | 200° |
| 2026-04-27 16:13 | 41.43188 | -74.38226 | 15668 ft | 330 kts | 199° |
| 2026-04-27 16:13 | 41.31909 | -74.43077 | 13954 ft | 315 kts | 198° |
| 2026-04-27 16:14 | 41.18369 | -74.48874 | 11808 ft | 300 kts | 197° |
| 2026-04-27 16:14 | 41.05131 | -74.54176 | 9806 ft | 287 kts | 184° |
| 2026-04-27 16:15 | 41.01176 | -74.54476 | 9218 ft | 283 kts | 181° |
| 2026-04-27 16:15 | 40.96382 | -74.54821 | 8539 ft | 278 kts | 181° |
| 2026-04-27 16:16 | 40.81251 | -74.56012 | 6390 ft | 266 kts | 175° |
| 2026-04-27 16:16 | 40.68952 | -74.55267 | 4225 ft | 266 kts | 175° |